Terminal Aerodrome Forecast
Issued by NWS Shreveport, LA

Home | Current Version | Previous Version | Text Only | Print | Product List | Glossary On
Versions: 1 2 3 4 5 6 7 8 9 10 11 12 13 14 15 16 17
000
FTUS44 KSHV 310200 AAA
TAFMLU
TAF AMD
KMLU 310220Z 3102/3124 18006KT P6SM BKN013 OVC018
     FM310500 18006KT 6SM BR SCT003 BKN008
      TEMPO 3105/3107 BKN003
     FM310700 18004KT 2SM BR BKN003 OVC008
     FM311500 20007KT P6SM BKN015
     FM311800 20008KT P6SM BKN150=

USA.gov is the U.S. government's official web portal to all federal, state and local government web resources and services.